Time;durP1;ratioP1;P1;durP2;ratioP2;P2;SDS_P1;SDS_P2;PMS_P1;PMS_P2;Temp;Humidity;BMP_temperature;BMP_pressure;BME280_temperature;BME280_humidity;BME280_pressure;Samples;Min_cycle;Max_cycle;Signal;HPM_P1;HPM_P2
2021/05/06 00:30:55;;;;;;;9.98;1.60;;;;;;;4.56;77.00;99834.00;3572905;40;20158;-53
2021/05/06 00:33:19;;;;;;;9.32;2.03;;;;;;;4.48;77.53;99837.94;3567348;40;20139;-50
2021/05/06 00:35:48;;;;;;;7.35;1.90;;;;;;;4.54;76.91;99842.38;3565386;40;20327;-50
2021/05/06 00:38:25;;;;;;;9.85;1.85;;;;;;;4.52;76.85;99837.25;3563993;40;20156;-49
2021/05/06 00:54:55;;;;;;;10.60;1.95;;;;;;;4.44;75.69;99842.88;3519273;40;20177;-48
2021/05/06 01:00:07;;;;;;;10.95;1.92;;;;;;;4.45;75.84;99844.59;3549336;40;20067;-47
2021/05/06 01:05:32;;;;;;;9.45;2.90;;;;;;;4.53;75.13;99849.13;3565382;40;20107;-50
2021/05/06 01:13:17;;;;;;;5.88;1.42;;;;;;;4.60;74.08;99843.47;3565573;40;20060;-45
2021/05/06 01:15:43;;;;;;;14.95;2.42;;;;;;;4.59;73.46;99854.41;3563735;40;20420;-49
2021/05/06 01:18:10;;;;;;;7.78;3.28;;;;;;;4.61;73.96;99841.78;3563524;40;20060;-47
2021/05/06 01:20:42;;;;;;;7.65;1.90;;;;;;;4.60;73.47;99845.13;3563473;40;20053;-49
2021/05/06 01:23:09;;;;;;;8.18;1.50;;;;;;;4.62;73.39;99843.50;3563793;40;20099;-48
2021/05/06 01:25:36;;;;;;;5.93;1.38;;;;;;;4.63;74.07;99839.31;3563415;40;20057;-45
2021/05/06 01:28:09;;;;;;;11.73;2.75;;;;;;;4.54;73.96;99840.72;3563390;40;20049;-45
2021/05/06 01:30:46;;;;;;;9.65;2.03;;;;;;;4.57;73.82;99845.88;3562290;40;20056;-46
2021/05/06 01:35:54;;;;;;;;;;;;;;;4.47;74.63;99840.44;3565504;40;20343;-46
2021/05/06 01:43:51;;;;;;;8.68;1.60;;;;;;;4.32;75.46;99844.13;3562393;40;20057;-48
2021/05/06 01:57:40;;;;;;;8.88;1.92;;;;;;;4.15;77.01;99846.84;3565220;40;20084;-46
2021/05/06 02:00:11;;;;;;;7.68;1.83;;;;;;;4.01;77.09;99846.31;3563061;40;20328;-47
2021/05/06 02:02:38;;;;;;;7.53;1.67;;;;;;;4.05;77.33;99838.03;3563540;40;20084;-46
2021/05/06 02:05:06;;;;;;;5.75;1.90;;;;;;;3.95;78.07;99843.56;3563264;40;20073;-47
2021/05/06 02:07:36;;;;;;;10.68;2.05;;;;;;;4.08;77.25;99845.75;3563472;40;20093;-51
2021/05/06 02:10:05;;;;;;;8.35;1.92;;;;;;;3.96;78.04;99833.47;3563541;40;20045;-48
2021/05/06 02:12:32;;;;;;;10.48;2.97;;;;;;;3.89;78.53;99834.06;3561855;40;20384;-46
2021/05/06 02:15:05;;;;;;;12.00;1.85;;;;;;;3.94;78.18;99839.31;3562545;40;20045;-45
2021/05/06 02:17:32;;;;;;;8.85;2.17;;;;;;;3.94;78.97;99836.78;3561365;40;20061;-46
2021/05/06 02:19:59;;;;;;;9.68;2.22;;;;;;;3.82;78.99;99840.56;3562546;40;20041;-45
2021/05/06 02:22:26;;;;;;;10.13;2.13;;;;;;;3.86;79.39;99839.00;3563225;40;20094;-46
2021/05/06 02:24:53;;;;;;;7.97;2.15;;;;;;;3.87;79.21;99840.72;3563547;40;20057;-47
2021/05/06 02:27:19;;;;;;;9.85;2.05;;;;;;;3.72;80.16;99843.53;3563078;40;20097;-48
2021/05/06 02:29:47;;;;;;;11.38;2.00;;;;;;;3.72;80.24;99842.69;3562782;40;20348;-48
2021/05/06 02:32:14;;;;;;;8.35;2.13;;;;;;;3.73;80.22;99840.19;3562937;40;21386;-45
2021/05/06 02:34:41;;;;;;;7.32;2.47;;;;;;;3.65;80.78;99838.16;3563371;40;20037;-46
2021/05/06 02:37:09;;;;;;;4.85;2.17;;;;;;;3.60;81.07;99842.19;3563225;40;20085;-46
2021/05/06 02:39:36;;;;;;;7.03;1.92;;;;;;;3.56;81.23;99837.00;3563909;40;20830;-46
2021/05/06 02:42:03;;;;;;;8.38;1.98;;;;;;;3.51;81.30;99843.56;3564661;40;20043;-46
2021/05/06 02:44:29;;;;;;;7.07;2.33;;;;;;;3.45;81.88;99835.69;3564860;40;20061;-46
2021/05/06 02:46:56;;;;;;;6.72;2.40;;;;;;;3.30;82.75;99841.00;3566189;40;20042;-53
2021/05/06 02:49:23;;;;;;;6.93;2.00;;;;;;;3.36;82.71;99840.38;3567497;40;20057;-47
2021/05/06 02:51:54;;;;;;;7.75;2.45;;;;;;;3.38;83.00;99843.88;3566606;40;20157;-49
2021/05/06 02:54:21;;;;;;;5.22;1.90;;;;;;;3.39;82.96;99842.19;3565100;40;20057;-47
2021/05/06 02:56:55;;;;;;;8.20;2.13;;;;;;;3.31;82.90;99836.81;3564892;40;20051;-47
2021/05/06 03:04:42;;;;;;;8.43;2.45;;;;;;;3.25;83.66;99850.09;3563810;40;20333;-48
2021/05/06 03:07:11;;;;;;;8.65;2.03;;;;;;;3.25;83.53;99852.63;3564448;40;20073;-48
2021/05/06 03:21:28;;;;;;;7.00;2.33;;;;;;;3.12;84.04;99850.38;3566921;40;20057;-46
2021/05/06 03:23:09;;;;;;;7.65;2.28;;;;;;;3.08;84.53;99855.25;3559222;40;20061;-47
2021/05/06 03:25:36;;;;;;;12.25;2.53;;;;;;;3.12;83.76;99849.50;3566411;40;20060;-48
2021/05/06 03:28:08;;;;;;;8.93;2.55;;;;;;;3.11;84.26;99857.91;3564346;40;20057;-46
2021/05/06 03:30:57;;;;;;;7.97;2.42;;;;;;;3.15;83.40;99858.09;3563091;40;20077;-45
2021/05/06 03:49:27;;;;;;;6.65;2.35;;;;;;;3.09;83.79;99875.53;3564052;40;20135;-47
2021/05/06 04:12:17;;;;;;;9.20;2.75;;;;;;;3.32;82.63;99884.06;3565689;40;20057;-53
2021/05/06 04:25:33;;;;;;;18.27;6.13;;;;;;;3.30;84.86;99883.16;3564164;40;20650;-48
2021/05/06 04:27:54;;;;;;;6.18;3.75;;;;;;;3.55;83.76;99892.63;3563008;40;20057;-46
2021/05/06 04:30:43;;;;;;;10.90;3.92;;;;;;;3.61;83.44;99890.34;3565351;40;20057;-46
2021/05/06 04:36:10;;;;;;;7.45;3.85;;;;;;;3.70;83.47;99894.94;3562883;40;20077;-46
2021/05/06 04:38:38;;;;;;;6.85;4.28;;;;;;;3.68;83.31;99891.44;3561987;40;20111;-50
2021/05/06 04:54:37;;;;;;;11.48;6.13;;;;;;;4.10;82.82;99887.19;3563482;40;20067;-53
2021/05/06 04:57:39;;;;;;;9.13;4.85;;;;;;;4.11;82.23;99891.47;3565990;40;20116;-49
2021/05/06 05:05:39;;;;;;;9.73;4.53;;;;;;;4.36;81.30;99898.34;3562479;40;20072;-52
2021/05/06 05:08:10;;;;;;;8.23;4.80;;;;;;;4.38;81.58;99901.78;3564172;40;20345;-49
2021/05/06 05:13:25;;;;;;;8.52;4.45;;;;;;;4.63;79.98;99900.19;3564229;40;20060;-51
2021/05/06 05:24:36;;;;;;;9.07;4.53;;;;;;;5.08;77.69;99906.00;3560748;40;20064;-49
2021/05/06 05:27:03;;;;;;;7.10;5.00;;;;;;;5.02;78.47;99906.66;3562209;40;20093;-48
2021/05/06 05:29:29;;;;;;;9.52;5.50;;;;;;;5.03;77.41;99899.91;3563391;40;20053;-50
2021/05/06 05:31:57;;;;;;;13.38;5.50;;;;;;;5.19;77.76;99903.84;3563181;40;20064;-51
2021/05/06 05:34:36;;;;;;;8.02;5.45;;;;;;;5.33;77.71;99902.66;3563347;40;20643;-49
2021/05/06 05:37:03;;;;;;;9.02;5.05;;;;;;;5.43;76.92;99901.28;3561762;40;20053;-49
2021/05/06 05:39:40;;;;;;;10.57;5.35;;;;;;;5.54;76.60;99905.03;3562147;40;20866;-50
2021/05/06 05:55:28;;;;;;;13.45;6.10;;;;;;;6.13;74.08;99904.44;3565168;40;20278;-57
2021/05/06 05:57:55;;;;;;;8.48;4.90;;;;;;;6.21;73.86;99898.72;3563739;40;20344;-54
2021/05/06 06:00:21;;;;;;;7.65;4.97;;;;;;;6.15;74.14;99908.69;3565208;40;20353;-52
2021/05/06 06:02:48;;;;;;;8.45;5.95;;;;;;;6.15;74.13;99904.50;3564770;40;20068;-52
2021/05/06 06:05:15;;;;;;;8.10;5.25;;;;;;;6.51;73.28;99903.84;3562954;40;20097;-49
2021/05/06 06:07:42;;;;;;;11.27;6.05;;;;;;;6.70;73.25;99901.03;3564620;40;20049;-48
2021/05/06 06:10:11;;;;;;;10.27;6.13;;;;;;;7.08;72.35;99903.78;3563746;40;20081;-51
2021/05/06 06:12:38;;;;;;;6.60;4.93;;;;;;;7.06;70.08;99910.50;3564138;40;20109;-49
2021/05/06 06:15:08;;;;;;;12.18;5.20;;;;;;;7.27;68.03;99905.97;3563747;40;20052;-54
2021/05/06 06:17:44;;;;;;;10.13;6.35;;;;;;;7.38;69.10;99918.97;3567516;40;20104;-54
2021/05/06 06:20:11;;;;;;;7.05;5.53;;;;;;;7.47;67.95;99913.25;3566490;40;20066;-47
2021/05/06 06:22:38;;;;;;;7.35;5.50;;;;;;;7.66;68.54;99910.34;3563198;40;20084;-46
2021/05/06 06:25:05;;;;;;;8.35;5.32;;;;;;;7.83;65.85;99915.88;3566636;40;20109;-49
2021/05/06 06:27:32;;;;;;;10.40;5.28;;;;;;;7.64;67.44;99909.47;3562683;40;20426;-52
2021/05/06 06:30:00;;;;;;;9.23;5.72;;;;;;;7.69;67.21;99909.56;3570799;40;20057;-53
2021/05/06 06:32:27;;;;;;;8.80;5.53;;;;;;;7.72;67.48;99909.63;3571680;40;20063;-49
2021/05/06 06:34:53;;;;;;;8.50;5.00;;;;;;;7.27;68.21;99905.13;3565770;40;20058;-52
2021/05/06 06:37:20;;;;;;;10.43;6.00;;;;;;;7.26;69.12;99908.50;3563961;40;20099;-50
2021/05/06 06:39:50;;;;;;;8.25;5.55;;;;;;;7.58;67.96;99904.19;3564074;40;20109;-50
2021/05/06 06:42:20;;;;;;;7.05;5.93;;;;;;;7.40;67.78;99902.94;3564101;40;20052;-50
2021/05/06 06:44:49;;;;;;;6.95;5.60;;;;;;;7.36;67.52;99903.66;3563006;40;20053;-48
2021/05/06 06:47:16;;;;;;;11.98;6.35;;;;;;;7.90;67.79;99897.31;3564887;40;20045;-46
2021/05/06 06:49:43;;;;;;;10.40;5.90;;;;;;;8.23;66.00;99904.91;3564965;40;20053;-50
2021/05/06 06:52:12;;;;;;;6.10;4.80;;;;;;;7.99;65.32;99906.88;3564078;40;20060;-50
2021/05/06 06:54:42;;;;;;;7.45;5.50;;;;;;;8.56;66.21;99902.25;3563266;40;20045;-53
2021/05/06 06:57:10;;;;;;;9.23;5.05;;;;;;;8.52;64.89;99897.91;3563755;40;20115;-49
2021/05/06 06:59:36;;;;;;;10.63;5.38;;;;;;;8.29;64.43;99891.44;3563775;40;20482;-52
2021/05/06 07:02:03;;;;;;;7.20;5.07;;;;;;;8.46;62.57;99892.69;3564335;40;20334;-46
2021/05/06 07:04:31;;;;;;;7.80;4.80;;;;;;;8.82;62.26;99895.13;3565765;40;20049;-47
2021/05/06 07:06:58;;;;;;;9.63;4.65;;;;;;;9.13;61.96;99893.16;3564990;40;20049;-50
2021/05/06 07:09:25;;;;;;;9.15;4.25;;;;;;;9.52;59.52;99894.69;3564234;40;20057;-54
2021/05/06 07:11:52;;;;;;;8.15;3.10;;;;;;;9.99;55.60;99892.91;3564020;40;20050;-53
2021/05/06 07:14:18;;;;;;;8.48;3.63;;;;;;;10.09;53.51;99896.47;3565254;40;20127;-51
2021/05/06 07:16:48;;;;;;;9.07;3.30;;;;;;;9.70;52.43;99897.56;3564169;40;20046;-50
2021/05/06 07:19:15;;;;;;;7.22;3.03;;;;;;;10.41;53.20;99913.16;3562983;40;20439;-52
2021/05/06 07:21:42;;;;;;;8.43;3.30;;;;;;;10.31;51.94;99916.44;3563212;40;20455;-49
2021/05/06 07:24:09;;;;;;;7.28;2.92;;;;;;;10.03;52.12;99909.16;3565258;40;20061;-53
2021/05/06 07:26:42;;;;;;;5.75;2.88;;;;;;;9.51;53.35;99905.75;3565333;40;20107;-48
2021/05/06 07:29:14;;;;;;;7.85;3.05;;;;;;;9.25;53.42;99912.97;3563581;40;20054;-46
2021/05/06 07:31:42;;;;;;;7.32;2.53;;;;;;;8.95;53.99;99906.44;3554071;40;20049;-48
2021/05/06 07:34:11;;;;;;;6.53;2.30;;;;;;;9.05;53.29;99905.78;3563037;40;20390;-48
2021/05/06 07:36:40;;;;;;;4.95;2.15;;;;;;;9.60;53.28;99905.91;3566040;40;20164;-50
2021/05/06 07:39:08;;;;;;;6.55;2.60;;;;;;;9.91;52.01;99908.13;3564001;40;20053;-52
2021/05/06 07:41:37;;;;;;;7.30;2.97;;;;;;;10.10;50.70;99900.75;3563929;40;20045;-51
2021/05/06 07:44:07;;;;;;;4.60;3.58;;;;;;;10.65;51.50;99906.66;3565033;40;20068;-52
2021/05/06 07:46:39;;;;;;;5.72;3.15;;;;;;;10.42;50.46;99903.78;3564477;40;20033;-55
2021/05/06 07:49:07;;;;;;;9.02;3.72;;;;;;;10.14;51.20;99897.41;3565191;40;20042;-56
2021/05/06 07:51:38;;;;;;;6.15;3.45;;;;;;;10.37;51.65;99901.16;3563474;40;20045;-52
2021/05/06 07:54:09;;;;;;;9.02;3.40;;;;;;;10.07;52.68;99900.69;3563968;40;20053;-50
2021/05/06 07:56:41;;;;;;;5.25;3.42;;;;;;;10.20;52.02;99906.00;3557882;40;20079;-52
2021/05/06 07:59:08;;;;;;;5.95;3.38;;;;;;;9.88;53.43;99914.91;3565483;40;20081;-54
2021/05/06 08:01:35;;;;;;;7.05;3.72;;;;;;;9.59;55.48;99899.09;3567557;40;20120;-51
2021/05/06 08:04:02;;;;;;;10.65;3.70;;;;;;;9.52;54.86;99910.03;3563679;40;20045;-48
2021/05/06 08:06:29;;;;;;;9.73;4.93;;;;;;;9.32;58.13;99910.53;3569516;40;20060;-56
2021/05/06 08:08:56;;;;;;;10.05;5.82;;;;;;;9.07;60.56;99916.91;3570089;40;20176;-49
2021/05/06 08:11:23;;;;;;;11.43;6.72;;;;;;;8.33;63.19;99914.50;3565588;40;20065;-50
2021/05/06 08:13:49;;;;;;;8.50;6.25;;;;;;;8.52;63.54;99914.91;3565657;40;20049;-51
2021/05/06 08:16:16;;;;;;;8.70;6.50;;;;;;;8.52;63.76;99917.47;3564562;40;20069;-49
2021/05/06 08:18:43;;;;;;;10.48;6.15;;;;;;;8.62;63.82;99914.28;3563662;40;20054;-50
2021/05/06 08:21:12;;;;;;;11.75;6.53;;;;;;;9.47;63.98;99920.16;3563059;40;20320;-50
2021/05/06 08:23:40;;;;;;;8.95;5.65;;;;;;;9.99;59.17;99907.41;3565916;40;20061;-56
2021/05/06 08:26:07;;;;;;;10.20;6.25;;;;;;;10.32;58.39;99914.75;3565968;40;20355;-50
2021/05/06 08:28:53;;;;;;;7.40;5.70;;;;;;;10.08;59.51;99910.97;3564400;40;20060;-48
2021/05/06 08:31:21;;;;;;;8.50;6.20;;;;;;;10.14;58.45;99913.59;3563977;40;20081;-56
2021/05/06 08:33:48;;;;;;;8.27;6.18;;;;;;;9.73;58.54;99909.53;3565126;40;20084;-53
2021/05/06 08:36:14;;;;;;;10.35;6.88;;;;;;;9.78;59.07;99913.03;3562851;40;20242;-55
2021/05/06 08:38:41;;;;;;;8.13;5.60;;;;;;;10.24;57.30;99919.75;3564318;40;20042;-59
2021/05/06 08:41:10;;;;;;;9.57;5.95;;;;;;;9.82;57.78;99913.09;3565722;40;20061;-57
2021/05/06 08:43:39;;;;;;;8.95;6.38;;;;;;;10.07;56.84;99916.91;3555978;40;20110;-53
2021/05/06 08:46:06;;;;;;;8.27;5.30;;;;;;;10.10;56.16;99916.94;3563446;40;20068;-58
2021/05/06 08:48:53;;;;;;;10.52;6.30;;;;;;;9.98;56.05;99909.06;3606423;23;20068;-56
2021/05/06 08:51:22;;;;;;;10.15;5.90;;;;;;;9.99;55.07;99910.81;3565511;40;20056;-51
2021/05/06 08:53:52;;;;;;;7.88;5.47;;;;;;;9.90;54.50;99915.78;3565898;40;20049;-55
2021/05/06 08:56:22;;;;;;;9.60;6.00;;;;;;;10.09;54.07;99920.34;3567512;40;20049;-55
2021/05/06 08:58:49;;;;;;;10.00;5.85;;;;;;;10.42;55.12;99916.59;3573208;40;20056;-54
2021/05/06 09:01:17;;;;;;;10.05;5.47;;;;;;;10.98;54.04;99918.16;3575662;40;20049;-60
2021/05/06 09:03:44;;;;;;;8.77;5.75;;;;;;;11.34;50.92;99915.97;3575034;40;20040;-56
2021/05/06 09:06:16;;;;;;;9.90;5.65;;;;;;;11.17;51.77;99913.22;3575052;40;20249;-58
2021/05/06 09:09:00;;;;;;;9.52;6.47;;;;;;;11.01;51.94;99910.50;3574851;40;20049;-54
2021/05/06 09:11:35;;;;;;;11.00;5.88;;;;;;;11.18;50.71;99917.53;3574949;40;20058;-56
2021/05/06 09:14:07;;;;;;;9.02;7.15;;;;;;;10.98;52.30;99903.63;3574394;40;20126;-53
2021/05/06 09:16:40;;;;;;;10.75;6.78;;;;;;;11.42;48.84;99904.09;3573731;40;20041;-51
2021/05/06 09:19:15;;;;;;;10.07;6.10;;;;;;;11.70;50.03;99902.66;3574050;40;20041;-62
2021/05/06 09:21:45;;;;;;;9.70;6.57;;;;;;;11.68;48.91;99898.34;3574677;40;20197;-53
2021/05/06 09:24:22;;;;;;;7.88;6.47;;;;;;;11.48;50.76;99905.88;3575424;40;20064;-51
2021/05/06 09:26:51;;;;;;;;;;;;;;;11.09;50.61;99914.00;3575638;40;20069;-52
2021/05/06 09:29:34;;;;;;;7.85;6.80;;;;;;;10.91;51.80;99906.97;3575029;40;19960;-62
2021/05/06 09:32:19;;;;;;;7.55;6.38;;;;;;;10.61;52.29;99905.75;3574323;40;20080;-62
2021/05/06 09:34:49;;;;;;;9.80;6.47;;;;;;;10.84;51.22;99898.34;3574275;40;20048;-59
2021/05/06 09:37:24;;;;;;;8.95;6.50;;;;;;;10.74;52.98;99905.91;3573585;40;20053;-53
2021/05/06 09:40:00;;;;;;;10.20;6.38;;;;;;;10.63;51.74;99901.53;3575766;40;20057;-59
2021/05/06 09:42:41;;;;;;;7.70;6.22;;;;;;;10.47;52.13;99902.16;3575167;40;20595;-59
2021/05/06 09:45:18;;;;;;;7.90;6.22;;;;;;;10.34;54.23;99898.56;3574904;40;20044;-52
2021/05/06 09:47:45;;;;;;;7.95;6.50;;;;;;;10.30;52.54;99891.69;3574600;40;20056;-55
2021/05/06 09:50:24;;;;;;;6.75;5.68;;;;;;;10.82;51.82;99887.25;3564180;40;20049;-56
2021/05/06 09:52:55;;;;;;;8.40;5.75;;;;;;;11.20;51.85;99886.78;3574338;40;20061;-59
2021/05/06 09:55:22;;;;;;;6.43;5.68;;;;;;;11.94;49.79;99890.88;3574365;40;20044;-59
2021/05/06 09:58:09;;;;;;;7.55;5.32;;;;;;;12.00;48.94;99879.81;3573855;40;20172;-59
2021/05/06 10:00:36;;;;;;;10.43;6.55;;;;;;;12.05;48.13;99883.25;3573656;40;20049;-60
2021/05/06 10:03:17;;;;;;;8.57;5.70;;;;;;;13.06;48.16;99874.28;3565662;40;20064;-57
2021/05/06 10:05:45;;;;;;;7.72;5.40;;;;;;;14.55;43.81;99879.41;3564913;40;20045;-59
2021/05/06 10:08:12;;;;;;;7.57;5.22;;;;;;;13.79;43.68;99877.84;3564949;40;20059;-59
2021/05/06 10:10:41;;;;;;;6.28;5.55;;;;;;;13.88;44.53;99876.13;3574437;40;20064;-52
2021/05/06 10:13:10;;;;;;;7.63;5.30;;;;;;;14.82;42.67;99875.88;3573991;40;20045;-58
2021/05/06 10:15:40;;;;;;;5.55;4.85;;;;;;;15.20;41.00;99873.06;3574054;40;20064;-49
2021/05/06 10:18:08;;;;;;;6.80;4.70;;;;;;;13.95;43.51;99872.66;3573696;40;20381;-53
2021/05/06 10:20:35;;;;;;;7.82;5.22;;;;;;;13.06;44.85;99871.72;3573404;40;20052;-57
2021/05/06 10:23:03;;;;;;;6.10;5.50;;;;;;;12.41;47.21;99865.50;3574131;40;20056;-56
2021/05/06 10:25:31;;;;;;;8.73;5.50;;;;;;;12.17;47.24;99867.94;3573727;40;20418;-55
2021/05/06 10:27:58;;;;;;;7.18;5.68;;;;;;;11.78;50.00;99865.91;3573162;40;20053;-53
2021/05/06 10:30:24;;;;;;;6.18;5.57;;;;;;;11.33;53.48;99867.28;3565442;40;20395;-54
2021/05/06 10:32:52;;;;;;;9.07;5.53;;;;;;;11.16;53.66;99882.47;3565470;40;20097;-60
2021/05/06 10:35:24;;;;;;;7.28;5.93;;;;;;;10.54;57.73;99885.16;3574038;40;20065;-55
2021/05/06 10:37:59;;;;;;;9.02;5.90;;;;;;;10.31;58.42;99890.88;3573909;40;20049;-60
2021/05/06 10:40:35;;;;;;;7.28;5.82;;;;;;;10.05;60.32;99890.44;3574770;40;20057;-62
2021/05/06 10:43:29;;;;;;;8.90;6.25;;;;;;;10.04;60.87;99888.72;3574339;40;20302;-59
2021/05/06 10:45:59;;;;;;;7.72;6.72;;;;;;;10.30;62.12;99896.78;3575085;40;20325;-61
2021/05/06 10:49:04;;;;;;;6.30;5.70;;;;;;;9.94;65.82;99903.09;3574337;40;20088;-59
2021/05/06 10:51:48;;;;;;;9.13;6.97;;;;;;;9.36;71.78;99908.91;3524973;40;20059;-58
2021/05/06 10:54:32;;;;;;;7.75;5.57;;;;;;;8.70;74.47;99934.88;3524337;40;20050;-63
2021/05/06 10:57:03;;;;;;;6.20;4.60;;;;;;;8.14;80.37;99938.72;3560063;40;20045;-56
2021/05/06 10:59:37;;;;;;;6.38;4.30;;;;;;;7.73;83.05;99937.72;3574872;40;20053;-65
2021/05/06 11:02:06;;;;;;;7.05;5.95;;;;;;;7.87;87.26;99938.06;3576206;40;20049;-59
2021/05/06 11:04:38;;;;;;;6.47;5.88;;;;;;;7.79;87.60;99942.97;3575116;40;20056;-57
2021/05/06 11:07:18;;;;;;;7.60;6.25;;;;;;;8.37;87.34;99926.53;3576957;40;20480;-61
2021/05/06 11:09:47;;;;;;;8.93;7.13;;;;;;;10.11;81.79;99939.13;3576214;40;20134;-60
2021/05/06 11:12:21;;;;;;;6.15;4.63;;;;;;;12.88;70.89;99939.34;3575620;40;20057;-60
2021/05/06 11:15:00;;;;;;;5.22;4.00;;;;;;;16.71;57.19;99938.91;3576359;40;20519;-58
2021/05/06 11:17:32;;;;;;;5.82;4.10;;;;;;;17.53;53.71;99938.72;3576517;40;20060;-60
2021/05/06 11:20:20;;;;;;;4.75;3.78;;;;;;;19.34;47.45;99946.66;3575072;40;20126;-61
2021/05/06 11:22:47;;;;;;;3.05;2.85;;;;;;;19.45;46.33;99930.84;3570718;40;20088;-61
2021/05/06 11:27:57;;;;;;;3.55;3.30;;;;;;;19.75;44.30;99924.97;3575511;40;20052;-61
2021/05/06 11:30:44;;;;;;;3.80;3.00;;;;;;;19.28;46.71;99928.66;3575698;40;20049;-61
2021/05/06 11:33:25;;;;;;;3.42;3.13;;;;;;;17.14;47.74;99912.53;3575993;40;20330;-61
2021/05/06 11:36:07;;;;;;;3.35;2.97;;;;;;;18.25;45.49;99919.44;3575812;40;20053;-61
2021/05/06 11:38:50;;;;;;;3.67;2.80;;;;;;;17.60;47.05;99917.03;3575187;40;20065;-59
2021/05/06 11:41:28;;;;;;;3.42;2.90;;;;;;;15.71;48.49;99908.00;3575193;40;20095;-60
2021/05/06 11:43:56;;;;;;;3.63;3.28;;;;;;;15.89;51.84;99906.16;3576054;40;20044;-58
2021/05/06 11:46:24;;;;;;;3.80;3.50;;;;;;;13.89;55.66;99907.84;3575916;40;20127;-57
2021/05/06 11:48:59;;;;;;;8.02;4.20;;;;;;;13.59;56.36;99904.44;3575693;40;20056;-58
2021/05/06 11:51:29;;;;;;;4.65;3.70;;;;;;;12.96;58.98;99908.53;3576304;40;20092;-58
2021/05/06 11:54:07;;;;;;;4.05;3.65;;;;;;;12.19;58.96;99908.16;3576290;40;20609;-59
2021/05/06 11:56:55;;;;;;;4.28;3.97;;;;;;;11.44;66.65;99902.41;3575818;40;20044;-60
2021/05/06 11:59:26;;;;;;;4.65;4.18;;;;;;;10.94;72.35;99912.97;3576643;40;20059;-60
2021/05/06 12:01:54;;;;;;;5.80;4.07;;;;;;;10.65;71.84;99915.19;3576066;40;20069;-60
2021/05/06 12:04:34;;;;;;;4.82;4.30;;;;;;;9.85;78.53;99914.88;3576047;40;20053;-59
2021/05/06 12:07:22;;;;;;;6.05;4.25;;;;;;;9.19;79.22;99913.69;3574735;40;20045;-59
2021/05/06 12:09:50;;;;;;;3.70;3.40;;;;;;;9.64;76.25;99911.09;3574980;40;21457;-60
2021/05/06 12:12:24;;;;;;;4.85;3.50;;;;;;;9.23;80.16;99912.06;3576724;40;20409;-60
2021/05/06 12:14:57;;;;;;;4.20;3.25;;;;;;;9.57;74.83;99906.75;3576162;40;20110;-58
2021/05/06 12:17:25;;;;;;;3.63;2.85;;;;;;;9.69;78.05;99906.91;3575695;40;20037;-59
2021/05/06 12:19:52;;;;;;;3.40;2.65;;;;;;;9.56;78.10;99912.66;3575537;40;20127;-57
2021/05/06 12:22:18;;;;;;;2.28;2.08;;;;;;;9.77;77.75;99901.09;3576826;40;20059;-60
2021/05/06 12:24:51;;;;;;;3.35;2.22;;;;;;;10.11;74.62;99905.00;3577845;40;20099;-58
2021/05/06 12:27:19;;;;;;;3.00;2.00;;;;;;;9.92;73.50;99903.88;3574587;40;20064;-58
2021/05/06 12:29:47;;;;;;;3.15;2.00;;;;;;;10.23;74.80;99907.75;3566825;40;20059;-61
2021/05/06 12:32:18;;;;;;;2.47;1.88;;;;;;;9.94;73.45;99902.22;3575178;40;20087;-53
2021/05/06 12:34:47;;;;;;;3.10;2.42;;;;;;;9.77;72.27;99896.84;3579482;40;20059;-59
2021/05/06 12:37:15;;;;;;;3.35;2.17;;;;;;;10.08;74.36;99885.38;3577168;40;20288;-61
2021/05/06 12:39:45;;;;;;;2.95;2.50;;;;;;;10.24;72.77;99886.47;3577652;40;20060;-60
2021/05/06 12:42:12;;;;;;;3.47;2.58;;;;;;;10.57;70.35;99883.50;3574482;40;20053;-57
2021/05/06 12:44:44;;;;;;;1.58;1.48;;;;;;;11.70;64.47;99878.72;3575472;40;20044;-60
2021/05/06 12:47:27;;;;;;;2.65;1.55;;;;;;;14.36;54.69;99884.59;3575766;40;20318;-57
2021/05/06 12:50:11;;;;;;;2.47;1.10;;;;;;;17.07;47.98;99869.53;3576195;40;20085;-58
2021/05/06 12:52:39;;;;;;;0.75;0.70;;;;;;;17.78;43.50;99874.50;3574168;40;20057;-59
2021/05/06 12:55:15;;;;;;;2.00;0.82;;;;;;;19.49;38.76;99871.00;3575595;40;20041;-59
2021/05/06 12:57:42;;;;;;;0.73;0.70;;;;;;;21.39;36.81;99873.59;3574558;40;20041;-59
2021/05/06 13:00:22;;;;;;;1.02;1.00;;;;;;;20.36;34.39;99862.75;3575365;40;20053;-60
2021/05/06 13:02:49;;;;;;;0.80;0.73;;;;;;;21.71;33.15;99856.06;3574991;40;20505;-58
2021/05/06 13:05:42;;;;;;;1.00;0.95;;;;;;;21.69;36.18;99858.72;3575200;40;20049;-58
2021/05/06 13:08:08;;;;;;;0.90;0.90;;;;;;;21.77;34.62;99845.44;3574859;40;20079;-61
2021/05/06 13:10:37;;;;;;;1.30;1.20;;;;;;;23.33;31.17;99850.13;3575423;40;20057;-61
2021/05/06 13:13:06;;;;;;;1.30;1.20;;;;;;;23.59;29.59;99849.09;3574851;40;20059;-61
2021/05/06 13:15:51;;;;;;;1.00;1.00;;;;;;;21.61;31.78;99847.72;3573636;40;20053;-58
2021/05/06 13:18:19;;;;;;;5.50;1.30;;;;;;;22.68;33.49;99845.69;3575044;40;20041;-58
2021/05/06 13:20:47;;;;;;;0.93;0.93;;;;;;;22.66;32.16;99840.53;3575210;40;20276;-61
2021/05/06 13:23:15;;;;;;;1.40;1.30;;;;;;;22.13;32.28;99845.09;3564863;40;20063;-60
2021/05/06 13:25:50;;;;;;;1.30;1.20;;;;;;;22.18;32.80;99835.34;3574566;40;20411;-57
2021/05/06 13:28:39;;;;;;;1.17;1.13;;;;;;;20.26;34.81;99832.69;3574959;40;20053;-55
2021/05/06 13:31:18;;;;;;;1.52;1.42;;;;;;;18.02;39.28;99827.41;3575139;40;20087;-59
2021/05/06 13:33:47;;;;;;;1.55;1.45;;;;;;;18.58;38.57;99828.06;3575047;40;20063;-51
2021/05/06 13:36:16;;;;;;;1.83;1.40;;;;;;;18.61;38.50;99834.91;3573986;40;20106;-54
2021/05/06 13:38:46;;;;;;;2.30;1.33;;;;;;;17.90;38.98;99832.84;3556102;40;20089;-49
2021/05/06 13:41:17;;;;;;;1.98;1.30;;;;;;;16.11;42.50;99826.75;3573711;40;20399;-53
2021/05/06 13:43:44;;;;;;;2.30;1.40;;;;;;;16.15;43.97;99828.44;3575616;40;20141;-56
2021/05/06 13:46:15;;;;;;;1.75;1.50;;;;;;;16.71;43.87;99825.16;3575523;40;20053;-54
2021/05/06 13:48:42;;;;;;;2.47;1.80;;;;;;;16.02;43.81;99812.19;3575493;40;20138;-52
2021/05/06 13:51:10;;;;;;;1.55;1.30;;;;;;;15.41;44.37;99815.34;3575641;40;20048;-55
2021/05/06 13:53:39;;;;;;;1.60;1.50;;;;;;;15.97;44.40;99816.56;3575219;40;20074;-55
2021/05/06 13:56:07;;;;;;;1.58;1.48;;;;;;;18.20;39.36;99822.78;3575129;40;20057;-55
2021/05/06 13:58:35;;;;;;;2.28;1.40;;;;;;;20.31;37.19;99818.66;3572073;40;20073;-56
2021/05/06 14:01:04;;;;;;;1.88;1.75;;;;;;;20.91;33.76;99818.69;3575100;40;20056;-55
2021/05/06 14:03:31;;;;;;;4.65;1.90;;;;;;;20.87;34.35;99817.06;3574439;40;20101;-62
2021/05/06 14:05:59;;;;;;;2.00;1.77;;;;;;;21.38;33.39;99817.19;3574311;40;20045;-57
2021/05/06 14:08:27;;;;;;;2.03;1.75;;;;;;;21.03;34.23;99815.69;3576531;40;20057;-49
2021/05/06 14:10:55;;;;;;;1.83;1.73;;;;;;;19.59;36.60;99804.97;3576367;40;20053;-54
2021/05/06 14:13:26;;;;;;;1.88;1.38;;;;;;;19.52;35.67;99800.84;3575114;40;20065;-58
2021/05/06 14:15:53;;;;;;;1.88;1.65;;;;;;;19.86;34.84;99805.16;3575051;40;20061;-56
2021/05/06 14:18:20;;;;;;;2.10;1.90;;;;;;;19.16;35.52;99812.13;3575121;40;20033;-57
2021/05/06 14:20:48;;;;;;;2.28;1.50;;;;;;;18.88;36.83;99802.38;3574913;40;20043;-56
2021/05/06 14:23:17;;;;;;;2.53;2.10;;;;;;;18.87;37.48;99811.03;3574191;40;20064;-56
2021/05/06 14:25:45;;;;;;;2.40;2.20;;;;;;;16.93;41.20;99811.97;3575042;40;20056;-49
2021/05/06 14:28:13;;;;;;;2.83;2.00;;;;;;;15.83;44.76;99803.78;3575345;40;20040;-49
2021/05/06 14:30:39;;;;;;;2.03;1.92;;;;;;;15.09;46.53;99800.09;3574744;40;20056;-54
2021/05/06 14:33:06;;;;;;;2.53;2.25;;;;;;;14.58;48.23;99799.56;3574968;40;20265;-52
2021/05/06 14:35:34;;;;;;;3.35;2.53;;;;;;;14.70;47.04;99799.50;3564706;40;20049;-53
2021/05/06 14:38:01;;;;;;;2.22;2.03;;;;;;;14.81;47.36;99796.84;3576390;40;20061;-54
2021/05/06 14:40:28;;;;;;;2.78;2.20;;;;;;;14.35;49.38;99803.06;3576993;40;20059;-56
2021/05/06 14:42:54;;;;;;;3.38;2.10;;;;;;;14.16;50.10;99797.09;3576406;40;20055;-54
2021/05/06 14:45:21;;;;;;;2.40;2.20;;;;;;;14.02;51.01;99796.31;3576353;40;20075;-55
2021/05/06 14:47:47;;;;;;;3.10;2.35;;;;;;;14.89;48.18;99790.78;3576118;40;20057;-61
2021/05/06 14:50:15;;;;;;;2.17;1.75;;;;;;;16.34;45.95;99803.25;3576848;40;20068;-60
2021/05/06 14:52:42;;;;;;;2.65;2.28;;;;;;;17.33;42.20;99803.59;3567557;40;20056;-57
2021/05/06 14:55:11;;;;;;;2.50;2.28;;;;;;;17.91;42.66;99810.38;3566957;40;20526;-59
2021/05/06 14:57:39;;;;;;;2.92;1.63;;;;;;;17.27;40.82;99807.97;3575713;40;20072;-61
2021/05/06 15:00:08;;;;;;;2.67;1.50;;;;;;;15.11;46.85;99794.03;3567399;40;20457;-58